sensor_id;sensor_type;location;lat;lon;timestamp;temperature;humidity
23717;DHT22;22094;52.130;5.598;2023-04-01T00:00:59;10.10;99.90
23717;DHT22;22094;52.130;5.598;2023-04-01T00:03:26;10.10;99.90
23717;DHT22;22094;52.130;5.598;2023-04-01T00:05:56;10.10;99.90
23717;DHT22;22094;52.130;5.598;2023-04-01T00:08:22;10.10;99.90
23717;DHT22;22094;52.130;5.598;2023-04-01T00:10:48;10.10;99.90
23717;DHT22;22094;52.130;5.598;2023-04-01T00:13:14;10.10;99.90
23717;DHT22;22094;52.130;5.598;2023-04-01T00:15:40;10.20;99.90
23717;DHT22;22094;52.130;5.598;2023-04-01T00:18:06;10.10;99.90
23717;DHT22;22094;52.130;5.598;2023-04-01T00:20:32;10.10;99.90
23717;DHT22;22094;52.130;5.598;2023-04-01T00:22:58;10.10;99.90
23717;DHT22;22094;52.130;5.598;2023-04-01T00:25:23;10.10;99.90
23717;DHT22;22094;52.130;5.598;2023-04-01T00:27:49;10.10;99.90
23717;DHT22;22094;52.130;5.598;2023-04-01T00:30:16;10.10;99.90
23717;DHT22;22094;52.130;5.598;2023-04-01T00:32:41;10.10;99.90
23717;DHT22;22094;52.130;5.598;2023-04-01T00:35:08;10.10;99.90
23717;DHT22;22094;52.130;5.598;2023-04-01T00:37:36;10.10;99.90
23717;DHT22;22094;52.130;5.598;2023-04-01T00:40:03;10.10;99.90
23717;DHT22;22094;52.130;5.598;2023-04-01T00:42:30;10.10;99.90
23717;DHT22;22094;52.130;5.598;2023-04-01T00:44:56;10.10;99.90
23717;DHT22;22094;52.130;5.598;2023-04-01T00:47:23;10.10;99.90
23717;DHT22;22094;52.130;5.598;2023-04-01T00:49:52;10.10;99.90
23717;DHT22;22094;52.130;5.598;2023-04-01T00:52:23;10.10;99.90
23717;DHT22;22094;52.130;5.598;2023-04-01T00:54:53;10.10;99.90
23717;DHT22;22094;52.130;5.598;2023-04-01T00:57:31;10.10;99.90
23717;DHT22;22094;52.130;5.598;2023-04-01T00:59:57;10.10;99.90
23717;DHT22;22094;52.130;5.598;2023-04-01T01:02:24;10.20;99.90
23717;DHT22;22094;52.130;5.598;2023-04-01T01:04:50;10.10;99.90
23717;DHT22;22094;52.130;5.598;2023-04-01T01:07:39;10.10;99.90
23717;DHT22;22094;52.130;5.598;2023-04-01T01:10:19;10.10;99.90
23717;DHT22;22094;52.130;5.598;2023-04-01T01:16:03;10.00;99.90
23717;DHT22;22094;52.130;5.598;2023-04-01T01:18:56;10.10;99.90
23717;DHT22;22094;52.130;5.598;2023-04-01T01:26:53;10.00;99.90
23717;DHT22;22094;52.130;5.598;2023-04-01T01:37:35;10.00;99.90
23717;DHT22;22094;52.130;5.598;2023-04-01T01:40:06;10.00;99.90
23717;DHT22;22094;52.130;5.598;2023-04-01T01:42:35;9.90;99.90
23717;DHT22;22094;52.130;5.598;2023-04-01T01:45:03;9.90;99.90
23717;DHT22;22094;52.130;5.598;2023-04-01T01:47:29;9.90;99.90
23717;DHT22;22094;52.130;5.598;2023-04-01T01:49:55;9.80;99.90
23717;DHT22;22094;52.130;5.598;2023-04-01T01:52:23;9.90;99.90
23717;DHT22;22094;52.130;5.598;2023-04-01T01:54:50;9.80;99.90
23717;DHT22;22094;52.130;5.598;2023-04-01T01:57:16;9.80;99.90
23717;DHT22;22094;52.130;5.598;2023-04-01T01:59:43;9.90;99.90
23717;DHT22;22094;52.130;5.598;2023-04-01T02:02:13;9.90;99.90
23717;DHT22;22094;52.130;5.598;2023-04-01T02:04:42;9.80;99.90
23717;DHT22;22094;52.130;5.598;2023-04-01T02:07:12;9.80;99.90
23717;DHT22;22094;52.130;5.598;2023-04-01T02:09:39;9.80;99.90
23717;DHT22;22094;52.130;5.598;2023-04-01T02:12:09;9.80;99.90
23717;DHT22;22094;52.130;5.598;2023-04-01T02:14:38;9.80;99.90
23717;DHT22;22094;52.130;5.598;2023-04-01T02:17:11;9.70;99.90
23717;DHT22;22094;52.130;5.598;2023-04-01T02:19:46;9.70;99.90
23717;DHT22;22094;52.130;5.598;2023-04-01T02:22:16;9.70;99.90
23717;DHT22;22094;52.130;5.598;2023-04-01T02:24:43;9.70;99.90
23717;DHT22;22094;52.130;5.598;2023-04-01T02:27:11;9.70;99.90
23717;DHT22;22094;52.130;5.598;2023-04-01T02:29:37;9.70;99.90
23717;DHT22;22094;52.130;5.598;2023-04-01T02:32:03;9.60;99.90
23717;DHT22;22094;52.130;5.598;2023-04-01T02:34:30;9.70;99.90
23717;DHT22;22094;52.130;5.598;2023-04-01T02:36:56;9.70;99.90
23717;DHT22;22094;52.130;5.598;2023-04-01T02:39:22;9.70;99.90
23717;DHT22;22094;52.130;5.598;2023-04-01T02:41:48;9.60;99.90
23717;DHT22;22094;52.130;5.598;2023-04-01T02:44:15;9.70;99.90
23717;DHT22;22094;52.130;5.598;2023-04-01T02:46:41;9.60;99.90
23717;DHT22;22094;52.130;5.598;2023-04-01T02:49:06;9.60;99.90
23717;DHT22;22094;52.130;5.598;2023-04-01T02:51:33;9.60;99.90
23717;DHT22;22094;52.130;5.598;2023-04-01T02:53:59;9.70;99.90
23717;DHT22;22094;52.130;5.598;2023-04-01T02:56:24;9.60;99.90
23717;DHT22;22094;52.130;5.598;2023-04-01T02:58:51;9.60;99.90
23717;DHT22;22094;52.130;5.598;2023-04-01T03:01:17;9.50;99.90
23717;DHT22;22094;52.130;5.598;2023-04-01T03:03:42;9.50;99.90
23717;DHT22;22094;52.130;5.598;2023-04-01T03:06:10;9.40;99.90
23717;DHT22;22094;52.130;5.598;2023-04-01T03:08:36;9.50;99.90
23717;DHT22;22094;52.130;5.598;2023-04-01T03:11:02;9.50;99.90
23717;DHT22;22094;52.130;5.598;2023-04-01T03:13:28;9.50;99.90
23717;DHT22;22094;52.130;5.598;2023-04-01T03:15:54;9.50;99.90
23717;DHT22;22094;52.130;5.598;2023-04-01T03:18:19;9.40;99.90
23717;DHT22;22094;52.130;5.598;2023-04-01T03:20:45;9.40;99.90
23717;DHT22;22094;52.130;5.598;2023-04-01T03:23:11;9.40;99.90
23717;DHT22;22094;52.130;5.598;2023-04-01T03:25:36;9.40;99.90
23717;DHT22;22094;52.130;5.598;2023-04-01T03:28:02;9.40;99.90
23717;DHT22;22094;52.130;5.598;2023-04-01T03:30:29;9.40;99.90
23717;DHT22;22094;52.130;5.598;2023-04-01T03:32:58;9.50;99.90
23717;DHT22;22094;52.130;5.598;2023-04-01T03:35:25;9.50;99.90
23717;DHT22;22094;52.130;5.598;2023-04-01T03:37:52;9.50;99.90
23717;DHT22;22094;52.130;5.598;2023-04-01T03:40:18;9.50;99.90
23717;DHT22;22094;52.130;5.598;2023-04-01T03:42:43;9.40;99.90
23717;DHT22;22094;52.130;5.598;2023-04-01T03:45:10;9.50;99.90
23717;DHT22;22094;52.130;5.598;2023-04-01T03:47:37;9.50;99.90
23717;DHT22;22094;52.130;5.598;2023-04-01T03:50:04;9.40;99.90
23717;DHT22;22094;52.130;5.598;2023-04-01T03:52:30;9.40;99.90
23717;DHT22;22094;52.130;5.598;2023-04-01T03:54:56;9.40;99.90
23717;DHT22;22094;52.130;5.598;2023-04-01T03:57:22;9.40;99.90
23717;DHT22;22094;52.130;5.598;2023-04-01T03:59:47;9.40;99.90
23717;DHT22;22094;52.130;5.598;2023-04-01T04:02:14;9.40;99.90
23717;DHT22;22094;52.130;5.598;2023-04-01T04:04:40;9.50;99.90
23717;DHT22;22094;52.130;5.598;2023-04-01T04:07:06;9.70;99.90
23717;DHT22;22094;52.130;5.598;2023-04-01T04:09:32;9.40;99.90
23717;DHT22;22094;52.130;5.598;2023-04-01T04:15:38;9.50;99.90
23717;DHT22;22094;52.130;5.598;2023-04-01T04:18:55;9.50;99.90
23717;DHT22;22094;52.130;5.598;2023-04-01T04:21:24;9.50;99.90
23717;DHT22;22094;52.130;5.598;2023-04-01T04:23:52;9.50;99.90
23717;DHT22;22094;52.130;5.598;2023-04-01T04:26:18;9.50;99.90
23717;DHT22;22094;52.130;5.598;2023-04-01T04:28:46;9.50;99.90
23717;DHT22;22094;52.130;5.598;2023-04-01T04:31:21;9.50;99.90
23717;DHT22;22094;52.130;5.598;2023-04-01T04:33:47;9.40;99.90
23717;DHT22;22094;52.130;5.598;2023-04-01T04:36:13;9.40;99.90
23717;DHT22;22094;52.130;5.598;2023-04-01T04:38:45;9.50;99.90
23717;DHT22;22094;52.130;5.598;2023-04-01T04:41:17;9.50;99.90
23717;DHT22;22094;52.130;5.598;2023-04-01T04:43:50;9.50;99.90
23717;DHT22;22094;52.130;5.598;2023-04-01T04:46:16;9.50;99.90
23717;DHT22;22094;52.130;5.598;2023-04-01T04:48:42;9.50;99.90
23717;DHT22;22094;52.130;5.598;2023-04-01T04:51:16;9.50;99.90
23717;DHT22;22094;52.130;5.598;2023-04-01T04:53:42;9.50;99.90
23717;DHT22;22094;52.130;5.598;2023-04-01T04:56:08;9.50;99.90
23717;DHT22;22094;52.130;5.598;2023-04-01T04:58:33;9.50;99.90
23717;DHT22;22094;52.130;5.598;2023-04-01T05:01:04;9.50;99.90
23717;DHT22;22094;52.130;5.598;2023-04-01T05:03:30;9.50;99.90
23717;DHT22;22094;52.130;5.598;2023-04-01T05:05:56;9.50;99.90
23717;DHT22;22094;52.130;5.598;2023-04-01T05:08:21;9.60;99.90
23717;DHT22;22094;52.130;5.598;2023-04-01T05:10:47;9.50;99.90
23717;DHT22;22094;52.130;5.598;2023-04-01T05:13:12;9.50;99.90
23717;DHT22;22094;52.130;5.598;2023-04-01T05:15:38;9.50;99.90
23717;DHT22;22094;52.130;5.598;2023-04-01T05:18:04;9.50;99.90
23717;DHT22;22094;52.130;5.598;2023-04-01T05:20:29;9.50;99.90
23717;DHT22;22094;52.130;5.598;2023-04-01T05:22:59;9.50;99.90
23717;DHT22;22094;52.130;5.598;2023-04-01T05:25:25;9.50;99.90
23717;DHT22;22094;52.130;5.598;2023-04-01T05:27:50;9.50;99.90
23717;DHT22;22094;52.130;5.598;2023-04-01T05:30:16;9.50;99.90
23717;DHT22;22094;52.130;5.598;2023-04-01T05:32:42;9.50;99.90
23717;DHT22;22094;52.130;5.598;2023-04-01T05:35:09;9.80;99.90
23717;DHT22;22094;52.130;5.598;2023-04-01T05:37:35;9.50;99.90
23717;DHT22;22094;52.130;5.598;2023-04-01T05:40:02;9.60;99.90
23717;DHT22;22094;52.130;5.598;2023-04-01T05:42:28;9.60;99.90
23717;DHT22;22094;52.130;5.598;2023-04-01T05:44:53;9.60;99.90
23717;DHT22;22094;52.130;5.598;2023-04-01T05:47:20;9.60;99.90
23717;DHT22;22094;52.130;5.598;2023-04-01T05:49:46;9.70;99.90
23717;DHT22;22094;52.130;5.598;2023-04-01T05:52:11;9.60;99.90
23717;DHT22;22094;52.130;5.598;2023-04-01T05:54:37;9.60;99.90
23717;DHT22;22094;52.130;5.598;2023-04-01T05:57:03;9.70;99.90
23717;DHT22;22094;52.130;5.598;2023-04-01T05:59:28;9.70;99.90
23717;DHT22;22094;52.130;5.598;2023-04-01T06:02:01;9.70;99.90
23717;DHT22;22094;52.130;5.598;2023-04-01T06:04:37;9.80;99.90
23717;DHT22;22094;52.130;5.598;2023-04-01T06:07:15;9.80;99.90
23717;DHT22;22094;52.130;5.598;2023-04-01T06:09:41;7.70;99.90
23717;DHT22;22094;52.130;5.598;2023-04-01T06:12:40;10.00;99.90
23717;DHT22;22094;52.130;5.598;2023-04-01T06:24:05;9.90;99.90
23717;DHT22;22094;52.130;5.598;2023-04-01T06:35:02;10.10;99.90
23717;DHT22;22094;52.130;5.598;2023-04-01T06:44:16;9.80;99.90
23717;DHT22;22094;52.130;5.598;2023-04-01T06:51:59;10.10;99.90
23717;DHT22;22094;52.130;5.598;2023-04-01T06:54:42;10.10;99.90
23717;DHT22;22094;52.130;5.598;2023-04-01T06:59:59;10.10;99.90
23717;DHT22;22094;52.130;5.598;2023-04-01T07:02:34;10.30;99.90
23717;DHT22;22094;52.130;5.598;2023-04-01T07:05:04;10.00;99.90
23717;DHT22;22094;52.130;5.598;2023-04-01T07:07:44;10.20;99.90
23717;DHT22;22094;52.130;5.598;2023-04-01T07:10:25;13.00;99.90
23717;DHT22;22094;52.130;5.598;2023-04-01T07:12:56;10.20;99.90
23717;DHT22;22094;52.130;5.598;2023-04-01T07:15:41;10.20;99.90
23717;DHT22;22094;52.130;5.598;2023-04-01T07:18:22;10.20;99.90
23717;DHT22;22094;52.130;5.598;2023-04-01T07:20:51;10.30;99.90
23717;DHT22;22094;52.130;5.598;2023-04-01T07:23:47;8.80;99.90
23717;DHT22;22094;52.130;5.598;2023-04-01T07:26:22;10.20;99.90
23717;DHT22;22094;52.130;5.598;2023-04-01T07:28:48;9.40;99.90
23717;DHT22;22094;52.130;5.598;2023-04-01T07:31:33;10.40;99.90
23717;DHT22;22094;52.130;5.598;2023-04-01T07:34:12;10.20;99.90
23717;DHT22;22094;52.130;5.598;2023-04-01T07:36:52;10.40;99.90
23717;DHT22;22094;52.130;5.598;2023-04-01T07:44:54;10.20;99.90
23717;DHT22;22094;52.130;5.598;2023-04-01T07:47:52;8.70;99.90
23717;DHT22;22094;52.130;5.598;2023-04-01T07:50:43;10.00;99.90
23717;DHT22;22094;52.130;5.598;2023-04-01T07:56:32;10.30;99.90
23717;DHT22;22094;52.130;5.598;2023-04-01T07:59:21;12.00;99.90
23717;DHT22;22094;52.130;5.598;2023-04-01T08:02:14;10.10;99.90
23717;DHT22;22094;52.130;5.598;2023-04-01T08:05:08;13.30;99.90
23717;DHT22;22094;52.130;5.598;2023-04-01T08:07:48;12.10;99.90
23717;DHT22;22094;52.130;5.598;2023-04-01T08:10:34;10.40;99.90
23717;DHT22;22094;52.130;5.598;2023-04-01T08:15:49;10.60;99.90
23717;DHT22;22094;52.130;5.598;2023-04-01T08:21:24;7.70;99.90
23717;DHT22;22094;52.130;5.598;2023-04-01T08:23:52;12.70;99.90
23717;DHT22;22094;52.130;5.598;2023-04-01T08:26:30;10.40;99.90
23717;DHT22;22094;52.130;5.598;2023-04-01T08:29:04;11.80;99.90
23717;DHT22;22094;52.130;5.598;2023-04-01T08:34:31;11.30;99.90
23717;DHT22;22094;52.130;5.598;2023-04-01T08:37:03;10.50;99.90
23717;DHT22;22094;52.130;5.598;2023-04-01T08:39:39;10.40;99.90
23717;DHT22;22094;52.130;5.598;2023-04-01T08:42:16;10.60;99.90
23717;DHT22;22094;52.130;5.598;2023-04-01T08:56:20;11.60;99.90
23717;DHT22;22094;52.130;5.598;2023-04-01T09:17:51;11.00;99.90
23717;DHT22;22094;52.130;5.598;2023-04-01T09:20:42;11.10;99.90
23717;DHT22;22094;52.130;5.598;2023-04-01T09:40:17;12.50;99.90
23717;DHT22;22094;52.130;5.598;2023-04-01T09:45:37;9.90;99.90
23717;DHT22;22094;52.130;5.598;2023-04-01T10:00:10;11.80;99.90
23717;DHT22;22094;52.130;5.598;2023-04-01T10:14:06;12.20;99.90
23717;DHT22;22094;52.130;5.598;2023-04-01T10:19:54;12.10;99.90
23717;DHT22;22094;52.130;5.598;2023-04-01T10:27:55;12.60;99.90
23717;DHT22;22094;52.130;5.598;2023-04-01T10:30:51;12.30;99.90
23717;DHT22;22094;52.130;5.598;2023-04-01T10:38:59;11.90;99.90
23717;DHT22;22094;52.130;5.598;2023-04-01T10:47:48;11.80;99.90
23717;DHT22;22094;52.130;5.598;2023-04-01T10:50:31;13.40;99.90
23717;DHT22;22094;52.130;5.598;2023-04-01T10:56:55;11.60;99.90
23717;DHT22;22094;52.130;5.598;2023-04-01T11:02:29;11.30;99.90
23717;DHT22;22094;52.130;5.598;2023-04-01T11:19:44;11.10;99.90
23717;DHT22;22094;52.130;5.598;2023-04-01T11:31:04;11.20;99.90
23717;DHT22;22094;52.130;5.598;2023-04-01T11:33:49;11.20;99.90
23717;DHT22;22094;52.130;5.598;2023-04-01T11:39:03;11.10;99.90
23717;DHT22;22094;52.130;5.598;2023-04-01T11:41:38;11.20;99.90
23717;DHT22;22094;52.130;5.598;2023-04-01T11:44:18;11.10;99.90
23717;DHT22;22094;52.130;5.598;2023-04-01T11:48:00;11.20;99.90
23717;DHT22;22094;52.130;5.598;2023-04-01T11:53:14;8.90;99.90
23717;DHT22;22094;52.130;5.598;2023-04-01T11:58:53;11.20;99.90
23717;DHT22;22094;52.130;5.598;2023-04-01T12:07:19;11.40;99.90
23717;DHT22;22094;52.130;5.598;2023-04-01T12:10:20;9.90;99.90
23717;DHT22;22094;52.130;5.598;2023-04-01T12:13:01;11.70;99.90
23717;DHT22;22094;52.130;5.598;2023-04-01T12:15:36;11.50;99.90
23717;DHT22;22094;52.130;5.598;2023-04-01T12:21:36;9.70;99.90
23717;DHT22;22094;52.130;5.598;2023-04-01T12:27:06;13.50;99.90
23717;DHT22;22094;52.130;5.598;2023-04-01T12:35:42;11.60;99.90
23717;DHT22;22094;52.130;5.598;2023-04-01T12:56:57;11.40;99.90
23717;DHT22;22094;52.130;5.598;2023-04-01T13:02:00;11.90;99.90
23717;DHT22;22094;52.130;5.598;2023-04-01T13:15:52;11.50;99.90
23717;DHT22;22094;52.130;5.598;2023-04-01T13:26:12;11.40;99.90
23717;DHT22;22094;52.130;5.598;2023-04-01T13:28:43;14.30;99.90
23717;DHT22;22094;52.130;5.598;2023-04-01T13:31:29;11.40;99.90
23717;DHT22;22094;52.130;5.598;2023-04-01T13:34:16;10.90;99.90
23717;DHT22;22094;52.130;5.598;2023-04-01T13:47:43;11.00;99.90
23717;DHT22;22094;52.130;5.598;2023-04-01T13:50:31;10.00;99.90
23717;DHT22;22094;52.130;5.598;2023-04-01T13:54:00;10.90;99.90
23717;DHT22;22094;52.130;5.598;2023-04-01T14:01:54;11.10;99.90
23717;DHT22;22094;52.130;5.598;2023-04-01T14:07:18;11.20;99.90
23717;DHT22;22094;52.130;5.598;2023-04-01T14:10:19;10.90;99.90
23717;DHT22;22094;52.130;5.598;2023-04-01T14:13:05;10.90;99.90
23717;DHT22;22094;52.130;5.598;2023-04-01T14:30:11;10.80;99.90
23717;DHT22;22094;52.130;5.598;2023-04-01T14:35:46;10.60;99.90
23717;DHT22;22094;52.130;5.598;2023-04-01T14:38:29;10.60;99.90
23717;DHT22;22094;52.130;5.598;2023-04-01T14:41:00;10.50;99.90
23717;DHT22;22094;52.130;5.598;2023-04-01T14:49:21;11.90;99.90
23717;DHT22;22094;52.130;5.598;2023-04-01T14:51:48;10.70;99.90
23717;DHT22;22094;52.130;5.598;2023-04-01T14:54:31;12.00;99.90
23717;DHT22;22094;52.130;5.598;2023-04-01T14:57:23;11.00;99.90
23717;DHT22;22094;52.130;5.598;2023-04-01T15:03:02;11.20;99.90
23717;DHT22;22094;52.130;5.598;2023-04-01T15:05:49;11.10;99.90
23717;DHT22;22094;52.130;5.598;2023-04-01T15:08:36;11.30;99.90
23717;DHT22;22094;52.130;5.598;2023-04-01T15:20:11;11.20;99.90
23717;DHT22;22094;52.130;5.598;2023-04-01T15:23:10;10.20;99.90
23717;DHT22;22094;52.130;5.598;2023-04-01T15:28:20;11.10;99.90
23717;DHT22;22094;52.130;5.598;2023-04-01T15:36:34;9.10;99.90
23717;DHT22;22094;52.130;5.598;2023-04-01T15:39:43;11.10;99.90
23717;DHT22;22094;52.130;5.598;2023-04-01T15:47:32;11.30;99.90
23717;DHT22;22094;52.130;5.598;2023-04-01T15:50:29;11.20;99.90
23717;DHT22;22094;52.130;5.598;2023-04-01T15:55:49;13.60;99.90
23717;DHT22;22094;52.130;5.598;2023-04-01T15:58:42;10.80;99.90
23717;DHT22;22094;52.130;5.598;2023-04-01T16:09:36;10.50;99.90
23717;DHT22;22094;52.130;5.598;2023-04-01T16:12:19;10.70;99.90
23717;DHT22;22094;52.130;5.598;2023-04-01T16:18:07;10.50;99.90
23717;DHT22;22094;52.130;5.598;2023-04-01T16:23:51;13.40;99.90
23717;DHT22;22094;52.130;5.598;2023-04-01T16:26:40;10.50;99.90
23717;DHT22;22094;52.130;5.598;2023-04-01T16:29:21;10.40;99.90
23717;DHT22;22094;52.130;5.598;2023-04-01T16:32:14;10.30;99.90
23717;DHT22;22094;52.130;5.598;2023-04-01T16:35:04;10.30;99.90
23717;DHT22;22094;52.130;5.598;2023-04-01T16:40:16;10.10;99.90
23717;DHT22;22094;52.130;5.598;2023-04-01T16:43:10;10.10;99.90
23717;DHT22;22094;52.130;5.598;2023-04-01T16:45:43;10.10;99.90
23717;DHT22;22094;52.130;5.598;2023-04-01T16:48:13;10.30;99.90
23717;DHT22;22094;52.130;5.598;2023-04-01T16:50:48;10.10;99.90
23717;DHT22;22094;52.130;5.598;2023-04-01T16:53:21;10.10;99.90
23717;DHT22;22094;52.130;5.598;2023-04-01T16:55:55;10.10;99.90
23717;DHT22;22094;52.130;5.598;2023-04-01T17:01:48;10.00;99.90
23717;DHT22;22094;52.130;5.598;2023-04-01T17:13:29;9.80;99.90
23717;DHT22;22094;52.130;5.598;2023-04-01T17:19:27;9.70;99.90
23717;DHT22;22094;52.130;5.598;2023-04-01T17:22:11;9.70;99.90
23717;DHT22;22094;52.130;5.598;2023-04-01T17:25:03;9.60;99.90
23717;DHT22;22094;52.130;5.598;2023-04-01T17:28:05;9.60;99.90
23717;DHT22;22094;52.130;5.598;2023-04-01T17:30:53;9.70;99.90
23717;DHT22;22094;52.130;5.598;2023-04-01T17:44:12;9.50;99.90
23717;DHT22;22094;52.130;5.598;2023-04-01T17:57:56;9.30;99.90
23717;DHT22;22094;52.130;5.598;2023-04-01T18:08:58;9.20;99.90
23717;DHT22;22094;52.130;5.598;2023-04-01T18:11:33;9.20;99.90
23717;DHT22;22094;52.130;5.598;2023-04-01T18:19:51;9.10;99.90
23717;DHT22;22094;52.130;5.598;2023-04-01T18:22:42;9.40;99.90
23717;DHT22;22094;52.130;5.598;2023-04-01T18:25:19;9.00;99.90
23717;DHT22;22094;52.130;5.598;2023-04-01T18:28:11;9.10;99.90
23717;DHT22;22094;52.130;5.598;2023-04-01T18:30:39;9.10;99.90
23717;DHT22;22094;52.130;5.598;2023-04-01T18:39:19;9.10;99.90
23717;DHT22;22094;52.130;5.598;2023-04-01T18:47:54;9.00;99.90
23717;DHT22;22094;52.130;5.598;2023-04-01T18:55:46;8.90;99.90
23717;DHT22;22094;52.130;5.598;2023-04-01T18:58:27;8.90;99.90
23717;DHT22;22094;52.130;5.598;2023-04-01T19:04:14;8.90;99.90
23717;DHT22;22094;52.130;5.598;2023-04-01T19:06:46;8.80;99.90
23717;DHT22;22094;52.130;5.598;2023-04-01T19:17:46;8.80;99.90
23717;DHT22;22094;52.130;5.598;2023-04-01T19:29:37;8.60;99.90
23717;DHT22;22094;52.130;5.598;2023-04-01T19:32:13;8.60;99.90
23717;DHT22;22094;52.130;5.598;2023-04-01T19:37:40;8.60;99.90
23717;DHT22;22094;52.130;5.598;2023-04-01T19:48:32;8.60;99.90
23717;DHT22;22094;52.130;5.598;2023-04-01T19:54:25;8.30;99.90
23717;DHT22;22094;52.130;5.598;2023-04-01T20:02:52;8.30;99.90
23717;DHT22;22094;52.130;5.598;2023-04-01T20:05:36;8.30;99.90
23717;DHT22;22094;52.130;5.598;2023-04-01T20:08:11;8.30;99.90
23717;DHT22;22094;52.130;5.598;2023-04-01T20:11:01;8.20;99.90
23717;DHT22;22094;52.130;5.598;2023-04-01T20:14:00;8.20;99.90
23717;DHT22;22094;52.130;5.598;2023-04-01T20:16:58;8.30;99.90
23717;DHT22;22094;52.130;5.598;2023-04-01T20:25:05;8.20;99.90
23717;DHT22;22094;52.130;5.598;2023-04-01T20:27:40;8.20;99.90
23717;DHT22;22094;52.130;5.598;2023-04-01T20:30:43;8.10;99.90
23717;DHT22;22094;52.130;5.598;2023-04-01T20:41:45;8.00;99.90
23717;DHT22;22094;52.130;5.598;2023-04-01T20:47:20;7.90;99.90
23717;DHT22;22094;52.130;5.598;2023-04-01T20:49:54;7.90;99.90
23717;DHT22;22094;52.130;5.598;2023-04-01T20:52:25;7.80;99.90
23717;DHT22;22094;52.130;5.598;2023-04-01T20:55:19;7.70;99.90
23717;DHT22;22094;52.130;5.598;2023-04-01T21:06:10;7.50;99.90
23717;DHT22;22094;52.130;5.598;2023-04-01T21:14:44;7.40;99.90
23717;DHT22;22094;52.130;5.598;2023-04-01T21:17:44;7.40;99.90
23717;DHT22;22094;52.130;5.598;2023-04-01T21:20:36;7.40;99.90
23717;DHT22;22094;52.130;5.598;2023-04-01T21:31:59;7.40;99.90
23717;DHT22;22094;52.130;5.598;2023-04-01T21:34:43;7.40;99.90
23717;DHT22;22094;52.130;5.598;2023-04-01T21:45:01;7.20;99.90
23717;DHT22;22094;52.130;5.598;2023-04-01T21:52:56;7.20;99.90
23717;DHT22;22094;52.130;5.598;2023-04-01T21:56:03;7.20;99.90
23717;DHT22;22094;52.130;5.598;2023-04-01T22:04:22;7.10;99.90
23717;DHT22;22094;52.130;5.598;2023-04-01T22:06:56;7.10;99.90
23717;DHT22;22094;52.130;5.598;2023-04-01T22:15:00;7.00;99.90
23717;DHT22;22094;52.130;5.598;2023-04-01T22:20:28;7.00;99.90
23717;DHT22;22094;52.130;5.598;2023-04-01T22:26:05;6.90;99.90
23717;DHT22;22094;52.130;5.598;2023-04-01T22:31:03;6.90;99.90
23717;DHT22;22094;52.130;5.598;2023-04-01T22:36:16;6.90;99.90
23717;DHT22;22094;52.130;5.598;2023-04-01T22:38:58;6.90;99.90
23717;DHT22;22094;52.130;5.598;2023-04-01T22:46:58;6.80;99.90
23717;DHT22;22094;52.130;5.598;2023-04-01T22:49:33;6.80;99.90
23717;DHT22;22094;52.130;5.598;2023-04-01T22:52:11;6.80;99.90
23717;DHT22;22094;52.130;5.598;2023-04-01T22:54:46;6.80;99.90
23717;DHT22;22094;52.130;5.598;2023-04-01T22:57:35;6.80;99.90
23717;DHT22;22094;52.130;5.598;2023-04-01T23:02:47;6.80;99.90
23717;DHT22;22094;52.130;5.598;2023-04-01T23:05:17;6.80;99.90
23717;DHT22;22094;52.130;5.598;2023-04-01T23:08:03;6.70;99.90
23717;DHT22;22094;52.130;5.598;2023-04-01T23:10:53;6.70;99.90
23717;DHT22;22094;52.130;5.598;2023-04-01T23:13:24;6.70;99.90
23717;DHT22;22094;52.130;5.598;2023-04-01T23:15:53;6.70;99.90
23717;DHT22;22094;52.130;5.598;2023-04-01T23:18:45;6.70;99.90
23717;DHT22;22094;52.130;5.598;2023-04-01T23:21:41;6.60;99.90
23717;DHT22;22094;52.130;5.598;2023-04-01T23:24:30;6.60;99.90
23717;DHT22;22094;52.130;5.598;2023-04-01T23:27:47;6.50;99.90
23717;DHT22;22094;52.130;5.598;2023-04-01T23:29:52;6.50;99.90
23717;DHT22;22094;52.130;5.598;2023-04-01T23:32:24;6.50;99.90
23717;DHT22;22094;52.130;5.598;2023-04-01T23:34:52;6.90;99.90
23717;DHT22;22094;52.130;5.598;2023-04-01T23:37:20;6.50;99.90
23717;DHT22;22094;52.130;5.598;2023-04-01T23:39:49;6.50;99.90
23717;DHT22;22094;52.130;5.598;2023-04-01T23:42:24;6.50;99.90
23717;DHT22;22094;52.130;5.598;2023-04-01T23:44:59;6.50;99.90
23717;DHT22;22094;52.130;5.598;2023-04-01T23:47:34;6.50;99.90
23717;DHT22;22094;52.130;5.598;2023-04-01T23:50:11;6.50;99.90
23717;DHT22;22094;52.130;5.598;2023-04-01T23:52:46;6.40;99.90
23717;DHT22;22094;52.130;5.598;2023-04-01T23:55:22;6.50;99.90
